sensor_id;sensor_type;location;lat;lon;timestamp;pressure;altitude;pressure_sealevel;temperature;humidity
38620;BME280;24376;51.986;4.662;2023-01-27T00:01:56;101770.78;;;5.72;100.00
38620;BME280;24376;51.986;4.662;2023-01-27T00:04:21;101767.97;;;5.82;100.00
38620;BME280;24376;51.986;4.662;2023-01-27T00:06:46;101770.28;;;5.77;100.00
38620;BME280;24376;51.986;4.662;2023-01-27T00:09:11;101779.56;;;5.74;100.00
38620;BME280;24376;51.986;4.662;2023-01-27T00:11:37;101788.09;;;5.71;100.00
38620;BME280;24376;51.986;4.662;2023-01-27T00:14:21;101795.16;;;5.74;100.00
38620;BME280;24376;51.986;4.662;2023-01-27T00:16:47;101789.56;;;5.81;100.00
38620;BME280;24376;51.986;4.662;2023-01-27T00:19:12;101807.75;;;5.81;100.00
38620;BME280;24376;51.986;4.662;2023-01-27T00:21:37;101808.66;;;5.81;100.00
38620;BME280;24376;51.986;4.662;2023-01-27T00:24:21;101806.50;;;5.89;100.00
38620;BME280;24376;51.986;4.662;2023-01-27T00:27:02;101819.94;;;5.82;100.00
38620;BME280;24376;51.986;4.662;2023-01-27T00:29:27;101820.09;;;5.85;100.00
38620;BME280;24376;51.986;4.662;2023-01-27T00:31:52;101840.91;;;5.85;100.00
38620;BME280;24376;51.986;4.662;2023-01-27T00:34:36;101852.75;;;5.80;100.00
38620;BME280;24376;51.986;4.662;2023-01-27T00:37:03;101841.31;;;5.91;100.00
38620;BME280;24376;51.986;4.662;2023-01-27T00:39:28;101860.72;;;5.83;100.00
38620;BME280;24376;51.986;4.662;2023-01-27T00:41:54;101881.41;;;5.81;100.00
38620;BME280;24376;51.986;4.662;2023-01-27T00:44:19;101879.38;;;5.91;100.00
38620;BME280;24376;51.986;4.662;2023-01-27T00:46:44;101893.09;;;5.88;100.00
38620;BME280;24376;51.986;4.662;2023-01-27T00:49:10;101895.69;;;5.88;100.00
38620;BME280;24376;51.986;4.662;2023-01-27T00:51:37;101916.19;;;5.83;100.00
38620;BME280;24376;51.986;4.662;2023-01-27T00:54:02;101926.50;;;5.82;100.00
38620;BME280;24376;51.986;4.662;2023-01-27T00:56:29;101933.56;;;5.84;100.00
38620;BME280;24376;51.986;4.662;2023-01-27T00:58:54;101957.31;;;5.76;100.00
38620;BME280;24376;51.986;4.662;2023-01-27T01:01:19;101963.69;;;5.81;100.00
38620;BME280;24376;51.986;4.662;2023-01-27T01:03:44;101970.97;;;5.73;100.00
38620;BME280;24376;51.986;4.662;2023-01-27T01:06:10;101987.78;;;5.78;100.00
38620;BME280;24376;51.986;4.662;2023-01-27T01:08:36;102012.69;;;5.75;100.00
38620;BME280;24376;51.986;4.662;2023-01-27T01:11:03;102059.84;;;5.68;100.00
38620;BME280;24376;51.986;4.662;2023-01-27T01:13:28;102068.97;;;5.74;100.00
38620;BME280;24376;51.986;4.662;2023-01-27T01:15:54;102084.66;;;5.76;100.00
38620;BME280;24376;51.986;4.662;2023-01-27T01:18:19;102101.56;;;5.69;100.00
38620;BME280;24376;51.986;4.662;2023-01-27T01:20:44;102102.53;;;5.71;100.00
38620;BME280;24376;51.986;4.662;2023-01-27T01:23:10;102116.91;;;5.66;100.00
38620;BME280;24376;51.986;4.662;2023-01-27T01:25:35;102123.22;;;5.70;100.00
38620;BME280;24376;51.986;4.662;2023-01-27T01:28:01;102130.81;;;5.67;100.00
38620;BME280;24376;51.986;4.662;2023-01-27T01:30:26;102133.81;;;5.59;100.00
38620;BME280;24376;51.986;4.662;2023-01-27T01:32:52;102154.50;;;5.58;100.00
38620;BME280;24376;51.986;4.662;2023-01-27T01:35:18;102167.97;;;5.52;100.00
38620;BME280;24376;51.986;4.662;2023-01-27T01:37:43;102187.16;;;5.54;100.00
38620;BME280;24376;51.986;4.662;2023-01-27T01:40:09;102198.94;;;5.49;100.00
38620;BME280;24376;51.986;4.662;2023-01-27T01:51:06;102240.50;;;5.49;100.00
38620;BME280;24376;51.986;4.662;2023-01-27T01:53:56;102251.84;;;5.38;100.00
38620;BME280;24376;51.986;4.662;2023-01-27T01:56:22;102258.06;;;5.40;100.00
38620;BME280;24376;51.986;4.662;2023-01-27T01:58:48;102260.34;;;5.36;100.00
38620;BME280;24376;51.986;4.662;2023-01-27T02:01:13;102255.25;;;5.37;100.00
38620;BME280;24376;51.986;4.662;2023-01-27T02:03:40;102262.09;;;5.23;100.00
38620;BME280;24376;51.986;4.662;2023-01-27T02:06:06;102247.13;;;5.32;100.00
38620;BME280;24376;51.986;4.662;2023-01-27T02:08:33;102250.78;;;5.23;100.00
38620;BME280;24376;51.986;4.662;2023-01-27T02:11:00;102255.75;;;5.20;100.00
38620;BME280;24376;51.986;4.662;2023-01-27T02:13:25;102265.25;;;5.19;100.00
38620;BME280;24376;51.986;4.662;2023-01-27T02:15:51;102273.59;;;5.15;100.00
38620;BME280;24376;51.986;4.662;2023-01-27T02:18:17;102273.75;;;5.17;100.00
38620;BME280;24376;51.986;4.662;2023-01-27T02:20:43;102276.63;;;5.21;100.00
38620;BME280;24376;51.986;4.662;2023-01-27T02:23:27;102297.09;;;5.17;100.00
38620;BME280;24376;51.986;4.662;2023-01-27T02:28:25;102306.47;;;5.15;100.00
38620;BME280;24376;51.986;4.662;2023-01-27T02:30:50;102298.47;;;5.12;100.00
38620;BME280;24376;51.986;4.662;2023-01-27T02:33:16;102311.66;;;5.15;100.00
38620;BME280;24376;51.986;4.662;2023-01-27T02:38:06;102305.13;;;5.08;100.00
38620;BME280;24376;51.986;4.662;2023-01-27T02:40:33;102308.06;;;5.13;100.00
38620;BME280;24376;51.986;4.662;2023-01-27T02:42:58;102312.00;;;5.07;100.00
38620;BME280;24376;51.986;4.662;2023-01-27T02:45:24;102306.16;;;4.98;100.00
38620;BME280;24376;51.986;4.662;2023-01-27T02:47:49;102312.94;;;4.96;100.00
38620;BME280;24376;51.986;4.662;2023-01-27T02:50:14;102329.41;;;4.97;100.00
38620;BME280;24376;51.986;4.662;2023-01-27T02:52:40;102329.50;;;4.98;100.00
38620;BME280;24376;51.986;4.662;2023-01-27T02:55:05;102333.81;;;4.98;100.00
38620;BME280;24376;51.986;4.662;2023-01-27T02:57:31;102335.16;;;4.93;100.00
38620;BME280;24376;51.986;4.662;2023-01-27T02:59:56;102337.09;;;4.95;100.00
38620;BME280;24376;51.986;4.662;2023-01-27T03:02:21;102333.06;;;4.87;100.00
38620;BME280;24376;51.986;4.662;2023-01-27T03:04:54;102327.72;;;4.97;100.00
38620;BME280;24376;51.986;4.662;2023-01-27T03:07:19;102318.38;;;4.99;100.00
38620;BME280;24376;51.986;4.662;2023-01-27T03:09:44;102313.50;;;4.92;100.00
38620;BME280;24376;51.986;4.662;2023-01-27T03:12:10;102323.13;;;4.93;100.00
38620;BME280;24376;51.986;4.662;2023-01-27T03:14:44;102309.19;;;4.93;100.00
38620;BME280;24376;51.986;4.662;2023-01-27T03:17:28;102313.41;;;4.91;100.00
38620;BME280;24376;51.986;4.662;2023-01-27T03:20:12;102315.00;;;4.89;100.00
38620;BME280;24376;51.986;4.662;2023-01-27T03:22:37;102295.13;;;4.89;100.00
38620;BME280;24376;51.986;4.662;2023-01-27T03:25:03;102289.50;;;4.83;100.00
38620;BME280;24376;51.986;4.662;2023-01-27T03:27:28;102283.75;;;4.87;100.00
38620;BME280;24376;51.986;4.662;2023-01-27T03:29:53;102293.53;;;4.79;100.00
38620;BME280;24376;51.986;4.662;2023-01-27T03:32:19;102291.75;;;4.78;100.00
38620;BME280;24376;51.986;4.662;2023-01-27T03:34:44;102295.25;;;4.79;100.00
38620;BME280;24376;51.986;4.662;2023-01-27T03:37:09;102276.63;;;4.85;100.00
38620;BME280;24376;51.986;4.662;2023-01-27T03:39:53;102281.34;;;4.90;100.00
38620;BME280;24376;51.986;4.662;2023-01-27T03:42:37;102289.72;;;4.74;100.00
38620;BME280;24376;51.986;4.662;2023-01-27T03:45:21;102280.66;;;4.81;100.00
38620;BME280;24376;51.986;4.662;2023-01-27T03:48:05;102277.53;;;4.73;100.00
38620;BME280;24376;51.986;4.662;2023-01-27T03:50:30;102277.34;;;4.70;100.00
38620;BME280;24376;51.986;4.662;2023-01-27T03:53:01;102264.47;;;4.72;100.00
38620;BME280;24376;51.986;4.662;2023-01-27T03:55:29;102281.94;;;4.63;100.00
38620;BME280;24376;51.986;4.662;2023-01-27T03:57:55;102269.22;;;4.66;100.00
38620;BME280;24376;51.986;4.662;2023-01-27T04:00:21;102280.59;;;4.56;100.00
38620;BME280;24376;51.986;4.662;2023-01-27T04:02:46;102275.50;;;4.58;100.00
38620;BME280;24376;51.986;4.662;2023-01-27T04:05:30;102283.88;;;4.53;100.00
38620;BME280;24376;51.986;4.662;2023-01-27T04:08:13;102282.97;;;4.53;100.00
38620;BME280;24376;51.986;4.662;2023-01-27T04:10:39;102276.19;;;4.67;100.00
38620;BME280;24376;51.986;4.662;2023-01-27T04:13:04;102294.47;;;4.57;100.00
38620;BME280;24376;51.986;4.662;2023-01-27T04:15:29;102311.50;;;4.53;100.00
38620;BME280;24376;51.986;4.662;2023-01-27T04:17:54;102318.25;;;4.51;100.00
38620;BME280;24376;51.986;4.662;2023-01-27T04:20:19;102323.59;;;4.52;100.00
38620;BME280;24376;51.986;4.662;2023-01-27T04:22:45;102325.59;;;4.57;100.00
38620;BME280;24376;51.986;4.662;2023-01-27T04:25:10;102335.06;;;4.44;100.00
38620;BME280;24376;51.986;4.662;2023-01-27T04:27:35;102344.09;;;4.49;100.00
38620;BME280;24376;51.986;4.662;2023-01-27T04:30:00;102336.22;;;4.48;100.00
38620;BME280;24376;51.986;4.662;2023-01-27T04:32:25;102353.22;;;4.44;100.00
38620;BME280;24376;51.986;4.662;2023-01-27T04:34:51;102358.75;;;4.37;100.00
38620;BME280;24376;51.986;4.662;2023-01-27T04:37:18;102362.22;;;4.38;100.00
38620;BME280;24376;51.986;4.662;2023-01-27T04:39:43;102381.50;;;4.30;100.00
38620;BME280;24376;51.986;4.662;2023-01-27T04:42:09;102375.88;;;4.35;100.00
38620;BME280;24376;51.986;4.662;2023-01-27T04:44:35;102374.50;;;4.40;100.00
38620;BME280;24376;51.986;4.662;2023-01-27T04:47:00;102377.69;;;4.36;100.00
38620;BME280;24376;51.986;4.662;2023-01-27T04:49:25;102373.94;;;4.33;100.00
38620;BME280;24376;51.986;4.662;2023-01-27T04:51:50;102392.78;;;4.30;100.00
38620;BME280;24376;51.986;4.662;2023-01-27T04:54:16;102394.34;;;4.28;100.00
38620;BME280;24376;51.986;4.662;2023-01-27T04:56:42;102411.94;;;4.32;100.00
38620;BME280;24376;51.986;4.662;2023-01-27T04:59:17;102413.09;;;4.36;100.00
38620;BME280;24376;51.986;4.662;2023-01-27T05:01:42;102424.81;;;4.31;100.00
38620;BME280;24376;51.986;4.662;2023-01-27T05:04:07;102426.72;;;4.33;100.00
38620;BME280;24376;51.986;4.662;2023-01-27T05:06:32;102445.66;;;4.32;100.00
38620;BME280;24376;51.986;4.662;2023-01-27T05:08:58;102465.63;;;4.33;100.00
38620;BME280;24376;51.986;4.662;2023-01-27T05:11:23;102478.91;;;4.26;100.00
38620;BME280;24376;51.986;4.662;2023-01-27T05:13:48;102507.34;;;4.36;100.00
38620;BME280;24376;51.986;4.662;2023-01-27T05:18:39;102538.97;;;4.42;100.00
38620;BME280;24376;51.986;4.662;2023-01-27T05:21:05;102558.38;;;4.47;100.00
38620;BME280;24376;51.986;4.662;2023-01-27T05:23:31;102587.59;;;4.35;100.00
38620;BME280;24376;51.986;4.662;2023-01-27T05:26:01;102603.22;;;4.46;100.00
38620;BME280;24376;51.986;4.662;2023-01-27T05:28:26;102618.56;;;4.43;100.00
38620;BME280;24376;51.986;4.662;2023-01-27T05:30:51;102633.59;;;4.47;100.00
38620;BME280;24376;51.986;4.662;2023-01-27T05:33:16;102651.75;;;4.47;100.00
38620;BME280;24376;51.986;4.662;2023-01-27T05:35:41;102665.75;;;4.49;100.00
38620;BME280;24376;51.986;4.662;2023-01-27T05:38:07;102667.81;;;4.53;100.00
38620;BME280;24376;51.986;4.662;2023-01-27T05:40:32;102676.97;;;4.60;100.00
38620;BME280;24376;51.986;4.662;2023-01-27T05:42:57;102688.56;;;4.53;100.00
38620;BME280;24376;51.986;4.662;2023-01-27T05:45:22;102681.78;;;4.56;100.00
38620;BME280;24376;51.986;4.662;2023-01-27T05:47:48;102693.75;;;4.53;100.00
38620;BME280;24376;51.986;4.662;2023-01-27T05:50:14;102699.06;;;4.55;100.00
38620;BME280;24376;51.986;4.662;2023-01-27T05:52:39;102695.78;;;4.58;100.00
38620;BME280;24376;51.986;4.662;2023-01-27T05:55:04;102712.03;;;4.55;100.00
38620;BME280;24376;51.986;4.662;2023-01-27T05:57:30;102714.50;;;4.53;100.00
38620;BME280;24376;51.986;4.662;2023-01-27T05:59:55;102723.78;;;4.62;100.00
38620;BME280;24376;51.986;4.662;2023-01-27T06:02:20;102720.97;;;4.59;100.00
38620;BME280;24376;51.986;4.662;2023-01-27T06:04:45;102732.53;;;4.52;100.00
38620;BME280;24376;51.986;4.662;2023-01-27T06:07:10;102747.44;;;4.54;100.00
38620;BME280;24376;51.986;4.662;2023-01-27T06:09:36;102769.06;;;4.65;100.00
38620;BME280;24376;51.986;4.662;2023-01-27T06:12:02;102777.16;;;4.58;100.00
38620;BME280;24376;51.986;4.662;2023-01-27T06:14:28;102798.03;;;4.60;100.00
38620;BME280;24376;51.986;4.662;2023-01-27T06:16:53;102813.31;;;4.57;100.00
38620;BME280;24376;51.986;4.662;2023-01-27T06:19:18;102824.47;;;4.66;100.00
38620;BME280;24376;51.986;4.662;2023-01-27T06:21:43;102839.78;;;4.63;100.00
38620;BME280;24376;51.986;4.662;2023-01-27T06:24:08;102856.53;;;4.56;100.00
38620;BME280;24376;51.986;4.662;2023-01-27T06:26:33;102866.13;;;4.57;100.00
38620;BME280;24376;51.986;4.662;2023-01-27T06:28:59;102872.88;;;4.55;100.00
38620;BME280;24376;51.986;4.662;2023-01-27T06:31:24;102874.69;;;4.56;100.00
38620;BME280;24376;51.986;4.662;2023-01-27T06:33:50;102880.53;;;4.53;100.00
38620;BME280;24376;51.986;4.662;2023-01-27T06:36:16;102887.78;;;4.58;100.00
38620;BME280;24376;51.986;4.662;2023-01-27T06:38:42;102889.34;;;4.56;100.00
38620;BME280;24376;51.986;4.662;2023-01-27T06:41:07;102915.06;;;4.52;100.00
38620;BME280;24376;51.986;4.662;2023-01-27T06:43:33;102938.13;;;4.60;100.00
38620;BME280;24376;51.986;4.662;2023-01-27T06:45:58;102952.28;;;4.53;100.00
38620;BME280;24376;51.986;4.662;2023-01-27T06:48:23;102973.03;;;4.53;100.00
38620;BME280;24376;51.986;4.662;2023-01-27T06:50:49;102976.53;;;4.43;100.00
38620;BME280;24376;51.986;4.662;2023-01-27T06:53:14;102980.31;;;4.47;100.00
38620;BME280;24376;51.986;4.662;2023-01-27T06:55:39;102979.38;;;4.46;100.00
38620;BME280;24376;51.986;4.662;2023-01-27T06:58:09;102992.75;;;4.41;100.00
38620;BME280;24376;51.986;4.662;2023-01-27T07:00:35;103032.94;;;4.36;100.00
38620;BME280;24376;51.986;4.662;2023-01-27T07:03:00;103049.91;;;4.32;100.00
38620;BME280;24376;51.986;4.662;2023-01-27T07:05:25;103067.81;;;4.39;100.00
38620;BME280;24376;51.986;4.662;2023-01-27T07:07:51;103084.16;;;4.38;100.00
38620;BME280;24376;51.986;4.662;2023-01-27T07:10:16;103094.53;;;4.38;100.00
38620;BME280;24376;51.986;4.662;2023-01-27T07:12:41;103099.59;;;4.37;100.00
38620;BME280;24376;51.986;4.662;2023-01-27T07:15:07;103129.81;;;4.36;100.00
38620;BME280;24376;51.986;4.662;2023-01-27T07:17:33;103136.69;;;4.36;100.00
38620;BME280;24376;51.986;4.662;2023-01-27T07:19:59;103143.28;;;4.32;100.00
38620;BME280;24376;51.986;4.662;2023-01-27T07:22:24;103148.22;;;4.39;100.00
38620;BME280;24376;51.986;4.662;2023-01-27T07:24:49;103144.47;;;4.36;100.00
38620;BME280;24376;51.986;4.662;2023-01-27T07:27:14;103153.41;;;4.29;100.00
38620;BME280;24376;51.986;4.662;2023-01-27T07:29:39;103141.47;;;4.31;100.00
38620;BME280;24376;51.986;4.662;2023-01-27T07:32:05;103134.72;;;4.33;100.00
38620;BME280;24376;51.986;4.662;2023-01-27T07:34:30;103129.00;;;4.27;100.00
38620;BME280;24376;51.986;4.662;2023-01-27T07:36:56;103125.38;;;4.25;100.00
38620;BME280;24376;51.986;4.662;2023-01-27T07:39:21;103128.28;;;4.09;100.00
38620;BME280;24376;51.986;4.662;2023-01-27T07:41:47;103131.31;;;4.14;100.00
38620;BME280;24376;51.986;4.662;2023-01-27T07:44:12;103136.19;;;4.11;100.00
38620;BME280;24376;51.986;4.662;2023-01-27T07:46:37;103146.03;;;4.05;100.00
38620;BME280;24376;51.986;4.662;2023-01-27T07:49:02;103149.75;;;3.98;100.00
38620;BME280;24376;51.986;4.662;2023-01-27T07:51:28;103156.25;;;4.03;100.00
38620;BME280;24376;51.986;4.662;2023-01-27T07:53:53;103156.25;;;4.03;100.00
38620;BME280;24376;51.986;4.662;2023-01-27T07:56:18;103166.50;;;4.02;100.00
38620;BME280;24376;51.986;4.662;2023-01-27T07:58:43;103164.94;;;4.04;100.00
38620;BME280;24376;51.986;4.662;2023-01-27T08:01:09;103181.91;;;4.00;100.00
38620;BME280;24376;51.986;4.662;2023-01-27T08:03:34;103174.53;;;4.05;100.00
38620;BME280;24376;51.986;4.662;2023-01-27T08:06:10;103181.84;;;4.09;100.00
38620;BME280;24376;51.986;4.662;2023-01-27T08:08:35;103182.88;;;4.11;100.00
38620;BME280;24376;51.986;4.662;2023-01-27T08:11:01;103190.69;;;4.21;100.00
38620;BME280;24376;51.986;4.662;2023-01-27T08:13:27;103207.53;;;4.16;100.00
38620;BME280;24376;51.986;4.662;2023-01-27T08:15:54;103214.81;;;4.20;100.00
38620;BME280;24376;51.986;4.662;2023-01-27T08:18:20;103216.41;;;4.28;100.00
38620;BME280;24376;51.986;4.662;2023-01-27T08:20:45;103220.19;;;4.32;100.00
38620;BME280;24376;51.986;4.662;2023-01-27T08:23:10;103222.44;;;4.37;100.00
38620;BME280;24376;51.986;4.662;2023-01-27T08:25:35;103224.47;;;4.31;100.00
38620;BME280;24376;51.986;4.662;2023-01-27T08:28:01;103218.09;;;4.27;100.00
38620;BME280;24376;51.986;4.662;2023-01-27T08:30:26;103219.66;;;4.25;100.00
38620;BME280;24376;51.986;4.662;2023-01-27T08:32:51;103200.63;;;4.35;100.00
38620;BME280;24376;51.986;4.662;2023-01-27T08:35:16;103198.44;;;4.40;100.00
38620;BME280;24376;51.986;4.662;2023-01-27T08:37:42;103190.81;;;4.41;100.00
38620;BME280;24376;51.986;4.662;2023-01-27T08:40:07;103189.50;;;4.46;100.00
38620;BME280;24376;51.986;4.662;2023-01-27T08:42:32;103192.97;;;4.37;100.00
38620;BME280;24376;51.986;4.662;2023-01-27T08:44:58;103192.69;;;4.34;100.00
38620;BME280;24376;51.986;4.662;2023-01-27T08:47:24;103205.28;;;4.29;100.00
38620;BME280;24376;51.986;4.662;2023-01-27T08:49:49;103200.91;;;4.38;100.00
38620;BME280;24376;51.986;4.662;2023-01-27T08:52:14;103209.22;;;4.44;100.00
38620;BME280;24376;51.986;4.662;2023-01-27T08:54:40;103208.41;;;4.35;100.00
38620;BME280;24376;51.986;4.662;2023-01-27T08:57:05;103214.28;;;4.43;100.00
38620;BME280;24376;51.986;4.662;2023-01-27T08:59:30;103230.25;;;4.47;100.00
38620;BME280;24376;51.986;4.662;2023-01-27T09:01:55;103255.28;;;4.47;100.00
38620;BME280;24376;51.986;4.662;2023-01-27T09:04:21;103256.09;;;4.56;100.00
38620;BME280;24376;51.986;4.662;2023-01-27T09:06:46;103268.16;;;4.56;100.00
38620;BME280;24376;51.986;4.662;2023-01-27T09:09:12;103282.81;;;4.55;100.00
38620;BME280;24376;51.986;4.662;2023-01-27T09:11:39;103291.81;;;4.69;100.00
38620;BME280;24376;51.986;4.662;2023-01-27T09:14:04;103294.53;;;4.60;100.00
38620;BME280;24376;51.986;4.662;2023-01-27T09:16:29;103298.56;;;4.67;100.00
38620;BME280;24376;51.986;4.662;2023-01-27T09:18:55;103297.25;;;4.62;100.00
38620;BME280;24376;51.986;4.662;2023-01-27T09:21:21;103307.88;;;4.54;100.00
38620;BME280;24376;51.986;4.662;2023-01-27T09:23:47;103306.81;;;4.52;100.00
38620;BME280;24376;51.986;4.662;2023-01-27T09:26:12;103315.34;;;4.51;100.00
38620;BME280;24376;51.986;4.662;2023-01-27T09:28:38;103310.94;;;4.50;100.00
38620;BME280;24376;51.986;4.662;2023-01-27T09:31:03;103311.41;;;4.65;100.00
38620;BME280;24376;51.986;4.662;2023-01-27T09:33:28;103312.81;;;4.62;100.00
38620;BME280;24376;51.986;4.662;2023-01-27T09:35:58;103312.75;;;4.70;100.00
38620;BME280;24376;51.986;4.662;2023-01-27T09:38:25;103313.41;;;4.78;100.00
38620;BME280;24376;51.986;4.662;2023-01-27T09:40:59;103311.19;;;4.72;100.00
38620;BME280;24376;51.986;4.662;2023-01-27T09:46:08;103280.59;;;4.78;100.00
38620;BME280;24376;51.986;4.662;2023-01-27T09:48:46;103276.91;;;4.66;100.00
38620;BME280;24376;51.986;4.662;2023-01-27T09:51:22;103264.88;;;4.77;100.00
38620;BME280;24376;51.986;4.662;2023-01-27T09:54:06;103250.63;;;4.92;100.00
38620;BME280;24376;51.986;4.662;2023-01-27T09:59:31;103253.75;;;4.88;100.00
38620;BME280;24376;51.986;4.662;2023-01-27T10:02:09;103257.66;;;4.93;100.00
38620;BME280;24376;51.986;4.662;2023-01-27T10:07:44;103287.88;;;4.93;100.00
38620;BME280;24376;51.986;4.662;2023-01-27T10:10:39;103283.34;;;4.90;100.00
38620;BME280;24376;51.986;4.662;2023-01-27T10:28:36;103315.44;;;5.40;100.00
38620;BME280;24376;51.986;4.662;2023-01-27T10:31:07;103322.94;;;5.37;100.00
38620;BME280;24376;51.986;4.662;2023-01-27T10:33:52;103341.63;;;5.33;100.00
38620;BME280;24376;51.986;4.662;2023-01-27T10:38:46;103351.16;;;5.43;100.00
38620;BME280;24376;51.986;4.662;2023-01-27T10:41:19;103354.78;;;5.45;100.00
38620;BME280;24376;51.986;4.662;2023-01-27T10:43:53;103361.16;;;5.48;100.00
38620;BME280;24376;51.986;4.662;2023-01-27T10:46:24;103361.44;;;5.61;100.00
38620;BME280;24376;51.986;4.662;2023-01-27T10:48:59;103370.81;;;5.59;100.00
38620;BME280;24376;51.986;4.662;2023-01-27T10:51:29;103364.59;;;5.78;100.00
38620;BME280;24376;51.986;4.662;2023-01-27T10:53:59;103377.88;;;5.81;100.00
38620;BME280;24376;51.986;4.662;2023-01-27T10:56:31;103375.28;;;5.91;100.00
38620;BME280;24376;51.986;4.662;2023-01-27T11:01:51;103398.91;;;5.64;93.23
38620;BME280;24376;51.986;4.662;2023-01-27T11:06:51;103388.06;;;5.49;100.00
38620;BME280;24376;51.986;4.662;2023-01-27T11:11:52;103369.75;;;5.68;100.00
38620;BME280;24376;51.986;4.662;2023-01-27T11:14:28;103362.66;;;5.75;100.00
38620;BME280;24376;51.986;4.662;2023-01-27T11:17:00;103363.78;;;5.79;100.00
38620;BME280;24376;51.986;4.662;2023-01-27T11:19:51;103357.97;;;5.81;100.00
38620;BME280;24376;51.986;4.662;2023-01-27T11:25:28;103359.06;;;6.04;97.84
38620;BME280;24376;51.986;4.662;2023-01-27T11:28:02;103374.88;;;5.97;87.39
38620;BME280;24376;51.986;4.662;2023-01-27T11:30:41;103371.13;;;6.13;87.71
38620;BME280;24376;51.986;4.662;2023-01-27T11:33:22;103399.03;;;5.85;73.10
38620;BME280;24376;51.986;4.662;2023-01-27T11:35:51;103382.97;;;6.00;84.15
38620;BME280;24376;51.986;4.662;2023-01-27T11:38:18;103385.69;;;6.11;84.63
38620;BME280;24376;51.986;4.662;2023-01-27T11:40:44;103398.91;;;5.84;67.73
38620;BME280;24376;51.986;4.662;2023-01-27T11:43:13;103389.09;;;6.00;80.60
38620;BME280;24376;51.986;4.662;2023-01-27T11:45:40;103380.22;;;6.08;81.66
38620;BME280;24376;51.986;4.662;2023-01-27T11:48:06;103378.94;;;5.93;83.24
38620;BME280;24376;51.986;4.662;2023-01-27T11:50:35;103368.22;;;5.90;97.38
38620;BME280;24376;51.986;4.662;2023-01-27T11:55:39;103349.91;;;5.88;95.52
38620;BME280;24376;51.986;4.662;2023-01-27T12:00:41;103324.28;;;6.13;100.00
38620;BME280;24376;51.986;4.662;2023-01-27T12:05:37;103317.56;;;5.95;100.00
38620;BME280;24376;51.986;4.662;2023-01-27T12:08:05;103305.06;;;6.01;100.00
38620;BME280;24376;51.986;4.662;2023-01-27T12:10:31;103303.13;;;5.99;100.00
38620;BME280;24376;51.986;4.662;2023-01-27T12:13:01;103297.09;;;5.79;100.00
38620;BME280;24376;51.986;4.662;2023-01-27T12:15:31;103265.50;;;5.85;100.00
38620;BME280;24376;51.986;4.662;2023-01-27T12:18:13;103255.28;;;5.86;100.00
38620;BME280;24376;51.986;4.662;2023-01-27T12:20:48;103255.91;;;5.74;100.00
38620;BME280;24376;51.986;4.662;2023-01-27T12:23:28;103234.06;;;5.82;100.00
38620;BME280;24376;51.986;4.662;2023-01-27T12:26:08;103215.59;;;5.79;100.00
38620;BME280;24376;51.986;4.662;2023-01-27T12:31:17;103189.34;;;5.86;100.00
38620;BME280;24376;51.986;4.662;2023-01-27T12:33:44;103172.19;;;5.88;100.00
38620;BME280;24376;51.986;4.662;2023-01-27T12:38:35;103156.97;;;5.82;100.00
38620;BME280;24376;51.986;4.662;2023-01-27T12:41:04;103155.19;;;5.61;100.00
38620;BME280;24376;51.986;4.662;2023-01-27T12:43:30;103138.69;;;5.60;100.00
38620;BME280;24376;51.986;4.662;2023-01-27T12:46:03;103116.09;;;5.70;100.00
38620;BME280;24376;51.986;4.662;2023-01-27T12:48:29;103104.13;;;5.61;100.00
38620;BME280;24376;51.986;4.662;2023-01-27T12:50:55;103095.56;;;5.63;100.00
38620;BME280;24376;51.986;4.662;2023-01-27T12:53:26;103080.19;;;5.76;100.00
38620;BME280;24376;51.986;4.662;2023-01-27T13:01:02;103116.28;;;5.83;100.00
38620;BME280;24376;51.986;4.662;2023-01-27T13:03:28;103136.84;;;5.80;100.00
38620;BME280;24376;51.986;4.662;2023-01-27T13:05:54;103152.81;;;5.84;100.00
38620;BME280;24376;51.986;4.662;2023-01-27T13:08:21;103169.19;;;5.83;100.00
38620;BME280;24376;51.986;4.662;2023-01-27T13:10:57;103172.47;;;5.81;100.00
38620;BME280;24376;51.986;4.662;2023-01-27T13:13:24;103190.28;;;5.56;100.00
38620;BME280;24376;51.986;4.662;2023-01-27T13:15:50;103215.63;;;5.48;100.00
38620;BME280;24376;51.986;4.662;2023-01-27T13:18:18;103199.78;;;5.76;100.00
38620;BME280;24376;51.986;4.662;2023-01-27T13:23:30;103221.25;;;5.63;100.00
38620;BME280;24376;51.986;4.662;2023-01-27T13:28:34;103249.19;;;5.45;100.00
38620;BME280;24376;51.986;4.662;2023-01-27T13:31:04;103231.75;;;5.65;100.00
38620;BME280;24376;51.986;4.662;2023-01-27T13:36:10;103211.88;;;5.75;100.00
38620;BME280;24376;51.986;4.662;2023-01-27T13:41:17;103212.25;;;5.70;100.00
38620;BME280;24376;51.986;4.662;2023-01-27T13:43:47;103217.47;;;5.70;100.00
38620;BME280;24376;51.986;4.662;2023-01-27T13:46:16;103241.38;;;5.66;100.00
38620;BME280;24376;51.986;4.662;2023-01-27T13:48:47;103242.53;;;5.69;100.00
38620;BME280;24376;51.986;4.662;2023-01-27T13:51:15;103256.44;;;5.49;100.00
38620;BME280;24376;51.986;4.662;2023-01-27T13:53:42;103239.53;;;5.54;100.00
38620;BME280;24376;51.986;4.662;2023-01-27T13:56:30;103232.25;;;5.50;100.00
38620;BME280;24376;51.986;4.662;2023-01-27T13:59:13;103219.81;;;5.46;100.00
38620;BME280;24376;51.986;4.662;2023-01-27T14:07:12;103152.50;;;5.39;100.00
38620;BME280;24376;51.986;4.662;2023-01-27T14:09:48;103136.16;;;5.30;100.00
38620;BME280;24376;51.986;4.662;2023-01-27T14:17:42;103086.69;;;5.28;100.00
38620;BME280;24376;51.986;4.662;2023-01-27T14:30:43;103096.91;;;5.37;100.00
38620;BME280;24376;51.986;4.662;2023-01-27T14:35:42;103121.47;;;5.20;100.00
38620;BME280;24376;51.986;4.662;2023-01-27T14:40:57;103091.47;;;5.14;100.00
38620;BME280;24376;51.986;4.662;2023-01-27T14:43:39;103092.28;;;5.13;100.00